CheckWX is a tool to help pilots better visualize weather data.  It is not intended as a substitute for an official pre-flight weather briefing.

18:26:26 UTC

VAAH TAF
Sardar Vallabhbhai Patel International Airport
Ahmedabad, India
TAF VAAH 241700Z 2418/2503 32008KT 4000 FU NSC TEMPO 2101/2103 33006KT 2500 FU

Apr-24@
18:00 UTC

Apr-24 @ 18:00 UTC

Apr-25@
03:00 UTC

Apr-25 @ 03:00 UTC

TAF VAAH 241700Z 2418/2503 32008KT 4000 FU NSC
Wind
  • 320° at 8 KTS
Conditions
Smoke
Cloud Levels
  • No significant clouds

Apr-21@
01:00 UTC

Apr-21 @ 01:00 UTC

Apr-21@
03:00 UTC

Apr-21 @ 03:00 UTC

TEMPO 2101/2103 33006KT 2500 FU

Expired

Wind
  • 330° at 6 KTS
Conditions
Smoke